Time;durP1;ratioP1;P1;durP2;ratioP2;P2;SDS_P1;SDS_P2;PMS_P1;PMS_P2;Temp;Humidity;BMP_temperature;BMP_pressure;BME280_temperature;BME280_humidity;BME280_pressure;Samples;Min_cycle;Max_cycle;Signal;HPM_P1;HPM_P2
2022/12/18 00:01:18;;;;;;;2.50;2.35;;;;;;;-6.43;100.00;102560.91;6037825;23;20022;-69
2022/12/18 00:03:45;;;;;;;2.90;2.70;;;;;;;-6.41;100.00;102548.22;6043765;23;20022;-69
2022/12/18 00:06:13;;;;;;;2.70;2.60;;;;;;;-6.37;100.00;102573.09;6036822;23;20097;-69
2022/12/18 00:08:44;;;;;;;2.72;2.63;;;;;;;-6.60;100.00;102561.78;6040612;23;20022;-69
2022/12/18 00:11:13;;;;;;;2.25;2.20;;;;;;;-6.53;100.00;102584.25;6043534;23;20015;-69
2022/12/18 00:13:39;;;;;;;4.78;3.00;;;;;;;-6.86;100.00;102540.94;6045185;23;20214;-69
2022/12/18 00:16:10;;;;;;;3.50;3.30;;;;;;;-6.59;100.00;102586.53;6040079;23;20019;-69
2022/12/18 00:18:37;;;;;;;2.25;2.15;;;;;;;-7.11;100.00;102505.72;6036440;23;20026;-69
2022/12/18 00:21:07;;;;;;;2.10;2.00;;;;;;;-6.58;100.00;102595.91;6043010;23;20014;-69
2022/12/18 00:23:35;;;;;;;3.03;2.85;;;;;;;-6.60;100.00;102584.75;6008622;23;20038;-69
2022/12/18 00:26:05;;;;;;;2.13;2.03;;;;;;;-6.52;100.00;102593.66;6037772;23;20014;-68
2022/12/18 00:28:34;;;;;;;5.03;2.95;;;;;;;-6.53;100.00;102606.38;6049037;23;20030;-69
2022/12/18 00:31:06;;;;;;;2.80;2.60;;;;;;;-7.00;100.00;102529.19;6040727;23;20030;-70
2022/12/18 00:33:33;;;;;;;1.80;1.80;;;;;;;-7.28;100.00;102481.91;6040489;23;20026;-70
2022/12/18 00:36:08;;;;;;;2.03;1.92;;;;;;;-6.58;100.00;102608.69;6034488;23;20011;-70
2022/12/18 00:38:36;;;;;;;2.78;2.67;;;;;;;-6.99;100.00;102553.94;6006670;23;20450;-70
2022/12/18 00:41:03;;;;;;;2.05;1.95;;;;;;;-6.79;100.00;102588.09;6015323;23;20022;-69
2022/12/18 00:43:30;;;;;;;1.73;1.73;;;;;;;-7.13;100.00;102506.44;6015076;23;20031;-70
2022/12/18 00:45:56;;;;;;;1.90;1.90;;;;;;;-8.29;100.00;102322.25;6025424;23;20026;-70
2022/12/18 00:48:23;;;;;;;2.40;2.30;;;;;;;-8.14;100.00;102339.09;6039947;23;20019;-70
2022/12/18 00:50:50;;;;;;;2.92;2.83;;;;;;;-6.67;100.00;102582.72;6036991;23;20026;-69
2022/12/18 00:53:18;;;;;;;3.85;2.78;;;;;;;-6.65;100.00;102588.78;6039965;23;20093;-69
2022/12/18 00:55:45;;;;;;;2.28;2.17;;;;;;;-7.63;100.00;102445.34;6042344;23;20039;-68
2022/12/18 00:58:15;;;;;;;13.70;3.30;;;;;;;-6.73;100.00;102587.53;6040981;23;20031;-69
2022/12/18 01:00:43;;;;;;;2.00;1.90;;;;;;;-7.25;100.00;102509.25;6038902;23;20034;-68
2022/12/18 01:03:13;;;;;;;2.80;2.70;;;;;;;-6.71;100.00;102594.44;6047117;23;20099;-69
2022/12/18 01:05:41;;;;;;;3.35;3.17;;;;;;;-7.44;100.00;102466.66;6040546;23;20498;-69
2022/12/18 01:08:07;;;;;;;3.30;3.10;;;;;;;-7.13;100.00;102530.28;6015581;23;20022;-69
2022/12/18 01:10:34;;;;;;;2.70;2.60;;;;;;;-7.59;100.00;102451.47;6042201;23;20115;-69
2022/12/18 01:13:00;;;;;;;3.08;2.88;;;;;;;-7.41;100.00;102489.78;6041002;23;20021;-70
2022/12/18 01:15:26;;;;;;;2.08;1.98;;;;;;;-7.05;100.00;102553.63;6040732;23;20490;-69
2022/12/18 01:17:53;;;;;;;2.25;2.15;;;;;;;-7.21;100.00;102526.47;6017926;23;20426;-69
2022/12/18 01:20:20;;;;;;;2.15;2.05;;;;;;;-7.54;100.00;102492.50;6014035;23;20015;-69
2022/12/18 01:22:46;;;;;;;3.58;2.83;;;;;;;-7.67;100.00;102474.03;6040792;23;20055;-69
2022/12/18 01:25:13;;;;;;;3.65;3.00;;;;;;;-6.99;100.00;102579.44;6048753;23;20026;-68
2022/12/18 01:27:39;;;;;;;2.15;2.05;;;;;;;-7.92;100.00;102402.22;6041721;23;20347;-69
2022/12/18 01:30:07;;;;;;;2.30;2.20;;;;;;;-6.88;100.00;102562.97;6038087;23;20026;-68
2022/12/18 01:32:33;;;;;;;2.08;1.98;;;;;;;-6.77;100.00;102555.88;6012116;23;20594;-69
2022/12/18 01:34:59;;;;;;;2.55;2.40;;;;;;;-7.05;100.00;102526.44;6037294;23;20037;-70
2022/12/18 01:37:26;;;;;;;2.35;2.25;;;;;;;-7.15;100.00;102502.94;6039994;23;20394;-70
2022/12/18 01:39:54;;;;;;;2.75;2.65;;;;;;;-7.28;100.00;102489.56;6041447;23;20473;-69
2022/12/18 01:42:20;;;;;;;2.80;2.63;;;;;;;-6.71;100.00;102586.78;6041850;23;20261;-70
2022/12/18 01:45:04;;;;;;;2.15;2.05;;;;;;;-6.69;100.00;102586.88;6040353;23;20022;-70
2022/12/18 01:47:44;;;;;;;3.53;3.35;;;;;;;-10.24;100.00;101986.78;6036699;23;20036;-70
2022/12/18 01:50:17;;;;;;;2.08;1.98;;;;;;;-6.77;100.00;102577.97;6039831;23;20024;-69
2022/12/18 01:53:11;;;;;;;1.80;1.80;;;;;;;-6.79;100.00;102582.09;6035349;23;20007;-69
2022/12/18 01:55:42;;;;;;;2.47;2.38;;;;;;;-7.00;100.00;102543.63;6003220;23;20072;-70
2022/12/18 01:58:09;;;;;;;2.35;2.25;;;;;;;-6.78;100.00;102576.19;6041855;23;20078;-70
2022/12/18 02:00:35;;;;;;;2.78;2.67;;;;;;;-6.68;100.00;102575.84;6035478;23;20035;-70
2022/12/18 02:03:02;;;;;;;2.22;2.13;;;;;;;-8.44;100.00;102281.66;6035787;23;20097;-69
2022/12/18 02:05:49;;;;;;;2.30;2.20;;;;;;;-7.03;100.00;102542.69;6036933;23;20030;-69
2022/12/18 02:08:45;;;;;;;2.60;2.40;;;;;;;-7.35;100.00;102487.53;6039592;23;20015;-69
2022/12/18 02:11:36;;;;;;;9.30;3.08;;;;;;;-6.73;100.00;102569.66;6024131;23;20492;-70
2022/12/18 02:14:19;;;;;;;2.78;2.67;;;;;;;-7.12;100.00;102495.44;6036050;23;20038;-69
2022/12/18 02:16:51;;;;;;;2.20;2.10;;;;;;;-6.66;100.00;102579.34;6031432;23;20015;-69
2022/12/18 02:20:06;;;;;;;2.30;2.20;;;;;;;-6.68;100.00;102575.84;6037109;23;20023;-68
2022/12/18 02:22:56;;;;;;;2.38;2.28;;;;;;;-6.72;100.00;102573.94;5985982;23;20732;-70
2022/12/18 02:25:58;;;;;;;2.75;2.53;;;;;;;-7.14;100.00;102523.41;6038333;23;20030;-68
2022/12/18 02:28:31;;;;;;;3.70;3.40;;;;;;;-7.46;100.00;102456.38;6036203;23;20489;-69
2022/12/18 02:31:01;;;;;;;2.85;2.75;;;;;;;-6.60;100.00;102583.88;6034757;23;20376;-69
2022/12/18 02:33:30;;;;;;;2.45;2.35;;;;;;;-7.24;100.00;102477.84;6043669;23;20041;-69
2022/12/18 02:35:59;;;;;;;2.40;2.30;;;;;;;-6.71;100.00;102568.91;6039206;23;20472;-69
2022/12/18 02:38:28;;;;;;;3.45;3.25;;;;;;;-7.47;100.00;102439.34;6015174;23;20036;-68
2022/12/18 02:40:54;;;;;;;3.25;2.95;;;;;;;-6.71;100.00;102571.47;6043095;23;20018;-69
2022/12/18 02:43:21;;;;;;;2.47;2.38;;;;;;;-7.05;100.00;102502.59;6037058;23;20018;-69
2022/12/18 02:45:57;;;;;;;2.40;2.30;;;;;;;-6.66;100.00;102554.69;6040265;23;20014;-69
2022/12/18 02:48:29;;;;;;;2.25;2.15;;;;;;;-6.64;100.00;102557.31;6045402;23;20037;-69
2022/12/18 02:51:19;;;;;;;2.60;2.50;;;;;;;-7.16;100.00;102484.19;6046215;23;20021;-70
2022/12/18 02:54:08;;;;;;;2.75;2.65;;;;;;;-7.24;100.00;102437.88;6018142;23;20393;-70
2022/12/18 02:56:49;;;;;;;1.73;1.73;;;;;;;-6.73;100.00;102537.34;6045056;23;20026;-70
2022/12/18 02:59:41;;;;;;;2.20;2.10;;;;;;;-6.58;100.00;102557.59;6044294;23;20081;-70
2022/12/18 03:02:33;;;;;;;2.00;1.90;;;;;;;-6.55;100.00;102564.56;6035137;23;20025;-69
2022/12/18 03:05:20;;;;;;;2.80;2.70;;;;;;;-7.23;100.00;102457.50;6042130;23;20030;-69
2022/12/18 03:07:59;;;;;;;1.60;1.60;;;;;;;-6.54;100.00;102558.66;6017702;23;20288;-69
2022/12/18 03:10:30;;;;;;;1.85;1.85;;;;;;;-6.87;100.00;102480.50;6043377;23;20525;-69
2022/12/18 03:13:05;;;;;;;3.23;3.07;;;;;;;-7.11;100.00;102447.03;6039584;23;20022;-69
2022/12/18 03:15:37;;;;;;;2.95;2.80;;;;;;;-6.37;100.00;102561.97;6046329;23;20038;-69
2022/12/18 03:18:12;;;;;;;2.20;2.10;;;;;;;-6.54;100.00;102533.09;6041107;23;20078;-69
2022/12/18 03:20:43;;;;;;;3.55;2.55;;;;;;;-6.72;100.00;102516.09;6040908;23;20050;-68
2022/12/18 03:23:15;;;;;;;2.70;2.60;;;;;;;-6.96;100.00;102467.28;6042245;23;20014;-69
2022/12/18 03:25:43;;;;;;;;;;;;;;;-6.40;100.00;102547.41;6041713;23;20033;-70
2022/12/18 03:28:15;;;;;;;1.95;1.88;;;;;;;-6.79;100.00;102457.91;6051206;23;19934;-68
2022/12/18 03:30:44;;;;;;;1.50;1.50;;;;;;;-6.60;100.00;102480.06;6070014;23;20035;-69
2022/12/18 03:33:19;;;;;;;2.22;2.13;;;;;;;-7.33;100.00;102383.03;6025755;23;20027;-69
2022/12/18 03:35:46;;;;;;;2.85;2.75;;;;;;;-6.65;100.00;102482.41;6042305;23;20039;-69
2022/12/18 03:38:13;;;;;;;2.60;2.50;;;;;;;-6.43;100.00;102539.59;6013186;23;20026;-69
2022/12/18 03:40:42;;;;;;;2.35;2.22;;;;;;;-6.29;100.00;102550.47;6049401;23;20114;-69
2022/12/18 03:43:21;;;;;;;2.72;2.63;;;;;;;-6.35;100.00;102548.50;6037865;23;20030;-69
2022/12/18 03:45:58;;;;;;;2.08;1.98;;;;;;;-6.80;100.00;102462.94;6022468;23;20011;-68
2022/12/18 03:48:32;;;;;;;3.72;3.53;;;;;;;-6.41;100.00;102527.78;6036289;23;20088;-69
2022/12/18 03:51:07;;;;;;;3.28;3.13;;;;;;;-6.68;100.00;102468.63;6040926;23;20079;-69
2022/12/18 03:53:41;;;;;;;2.00;1.90;;;;;;;-6.51;100.00;102492.41;6044923;23;20112;-71
2022/12/18 03:56:10;;;;;;;3.38;3.17;;;;;;;-6.73;100.00;102459.88;6043607;23;20027;-69
2022/12/18 03:58:40;;;;;;;3.28;3.08;;;;;;;-6.61;100.00;102473.22;6010463;23;20026;-68
2022/12/18 04:01:09;;;;;;;7.50;3.13;;;;;;;-6.28;100.00;102534.31;6037712;23;20018;-68
2022/12/18 04:03:37;;;;;;;5.68;2.60;;;;;;;-7.56;100.00;102328.38;6039888;23;20053;-69
2022/12/18 04:06:05;;;;;;;2.38;2.28;;;;;;;-6.82;100.00;102456.06;6016568;23;20039;-69
2022/12/18 04:08:34;;;;;;;2.17;2.08;;;;;;;-6.87;100.00;102449.88;6043491;23;20026;-69
2022/12/18 04:11:02;;;;;;;3.08;2.88;;;;;;;-6.81;100.00;102467.16;6005876;23;20064;-69
2022/12/18 04:13:37;;;;;;;2.83;2.72;;;;;;;-6.51;100.00;102507.72;6022206;23;20055;-69
2022/12/18 04:16:05;;;;;;;4.00;3.80;;;;;;;-6.39;100.00;102532.94;6041614;23;20010;-69
2022/12/18 04:18:32;;;;;;;2.83;2.72;;;;;;;-6.90;100.00;102457.38;6044797;23;20058;-69
2022/12/18 04:20:58;;;;;;;2.65;2.55;;;;;;;-6.36;100.00;102523.75;6037310;23;20587;-67
2022/12/18 04:23:25;;;;;;;3.00;2.63;;;;;;;-6.83;100.00;102448.34;6038196;23;20102;-69
2022/12/18 04:25:51;;;;;;;2.65;2.55;;;;;;;-7.18;100.00;102406.72;6043627;23;20524;-68
2022/12/18 04:28:17;;;;;;;2.55;2.42;;;;;;;-6.83;100.00;102459.44;6043552;23;20488;-69
2022/12/18 04:30:44;;;;;;;1.95;1.88;;;;;;;-6.64;100.00;102491.81;6038821;23;20057;-68
2022/12/18 04:33:12;;;;;;;2.17;2.00;;;;;;;-6.39;100.00;102525.28;6041978;23;20037;-69
2022/12/18 04:35:39;;;;;;;1.88;1.85;;;;;;;-6.35;100.00;102529.72;6033061;23;20712;-69
2022/12/18 04:38:08;;;;;;;2.97;2.88;;;;;;;-6.37;100.00;102528.78;6040645;23;20124;-69
2022/12/18 04:40:34;;;;;;;2.25;2.15;;;;;;;-6.67;100.00;102478.91;6048551;23;20767;-68
2022/12/18 04:43:01;;;;;;;2.78;2.67;;;;;;;-7.19;100.00;102409.22;6012105;23;20022;-69
2022/12/18 04:45:27;;;;;;;3.75;3.45;;;;;;;-7.03;100.00;102417.66;6043687;23;20030;-69
2022/12/18 04:47:54;;;;;;;2.38;2.28;;;;;;;-6.37;100.00;102526.22;6040173;23;20085;-69
2022/12/18 04:50:20;;;;;;;9.27;4.30;;;;;;;-6.65;100.00;102478.97;6008661;23;20442;-71
2022/12/18 04:52:46;;;;;;;3.58;3.35;;;;;;;-7.80;100.00;102277.94;6045473;23;20611;-69
2022/12/18 04:55:13;;;;;;;2.13;2.03;;;;;;;-6.57;100.00;102464.00;6040133;23;20027;-69
2022/12/18 04:57:39;;;;;;;2.67;2.58;;;;;;;-6.77;100.00;102425.66;6041515;23;20030;-68
2022/12/18 05:00:06;;;;;;;3.30;3.13;;;;;;;-7.02;100.00;102380.25;6042964;23;20041;-70
2022/12/18 05:02:33;;;;;;;3.40;2.30;;;;;;;-6.53;100.00;102477.00;6042738;23;20050;-69
2022/12/18 05:04:59;;;;;;;2.85;2.75;;;;;;;-6.15;100.00;102512.75;6042331;23;20018;-69
2022/12/18 05:07:26;;;;;;;3.58;3.35;;;;;;;-6.15;100.00;102500.88;6032105;23;20011;-69
2022/12/18 05:09:52;;;;;;;2.03;1.92;;;;;;;-6.16;100.00;102496.56;6041056;23;20051;-68
2022/12/18 05:12:18;;;;;;;3.05;2.85;;;;;;;-6.14;100.00;102496.63;6045231;23;20015;-69
2022/12/18 05:14:45;;;;;;;2.88;2.67;;;;;;;-7.80;100.00;102224.44;6038139;23;20402;-69
2022/12/18 05:17:11;;;;;;;2.15;2.05;;;;;;;-6.75;100.00;102413.84;6038969;23;20023;-70
2022/12/18 05:19:38;;;;;;;2.45;2.35;;;;;;;-7.25;100.00;102341.78;6043504;23;20030;-70
2022/12/18 05:22:04;;;;;;;2.83;2.63;;;;;;;-6.30;100.00;102513.81;6043199;23;20700;-70
2022/12/18 05:24:30;;;;;;;2.65;2.47;;;;;;;-6.91;100.00;102407.16;6047599;23;20027;-70
2022/12/18 05:26:57;;;;;;;9.20;3.30;;;;;;;-6.52;100.00;102465.97;6034419;23;20042;-69
2022/12/18 05:29:23;;;;;;;3.00;2.80;;;;;;;-6.39;100.00;102485.31;6015293;23;20022;-70
2022/12/18 05:31:49;;;;;;;2.22;2.13;;;;;;;-6.54;100.00;102479.47;6038072;23;20858;-70
2022/12/18 05:34:16;;;;;;;1.85;1.85;;;;;;;-6.53;100.00;102494.88;6039285;23;20497;-67
2022/12/18 05:36:43;;;;;;;2.30;2.20;;;;;;;-6.32;100.00;102519.66;6039008;23;20018;-68
2022/12/18 05:39:09;;;;;;;2.55;2.45;;;;;;;-6.28;100.00;102521.56;6050088;23;20030;-68
2022/12/18 05:41:36;;;;;;;3.08;2.88;;;;;;;-6.65;100.00;102456.00;6035665;23;20080;-71
2022/12/18 05:44:02;;;;;;;2.20;2.10;;;;;;;-6.50;100.00;102486.47;6038563;23;20034;-71
2022/12/18 05:46:30;;;;;;;2.55;2.45;;;;;;;-6.30;100.00;102533.38;6018419;23;20689;-71
2022/12/18 05:49:00;;;;;;;2.35;2.25;;;;;;;-6.31;100.00;102539.31;6042173;23;20585;-69
2022/12/18 05:51:27;;;;;;;2.50;2.40;;;;;;;-6.28;100.00;102539.44;6037456;23;20109;-69
2022/12/18 05:53:54;;;;;;;1.75;1.75;;;;;;;-7.03;100.00;102398.94;6037753;23;20547;-69
2022/12/18 05:56:22;;;;;;;3.08;2.88;;;;;;;-6.31;100.00;102516.31;6042312;23;20007;-69
2022/12/18 05:58:52;;;;;;;3.33;3.03;;;;;;;-6.25;100.00;102545.56;6041650;23;20036;-69
2022/12/18 06:01:23;;;;;;;3.67;3.40;;;;;;;-6.11;100.00;102568.34;6021149;23;20014;-70
2022/12/18 06:03:50;;;;;;;2.42;2.35;;;;;;;-6.09;100.00;102566.72;6017667;23;20030;-69
2022/12/18 06:06:17;;;;;;;4.45;4.25;;;;;;;-6.12;100.00;102567.44;6032404;23;20084;-68
2022/12/18 06:08:44;;;;;;;2.97;2.78;;;;;;;-6.18;100.00;102551.81;6009414;23;20081;-69
2022/12/18 06:11:13;;;;;;;2.85;2.70;;;;;;;-6.08;100.00;102563.34;6037221;23;20155;-68
2022/12/18 06:13:39;;;;;;;2.95;2.80;;;;;;;-6.08;100.00;102566.78;6046038;23;20128;-69
2022/12/18 06:16:07;;;;;;;2.20;2.10;;;;;;;-6.13;100.00;102549.47;6047864;23;20038;-69
2022/12/18 06:18:34;;;;;;;4.90;3.42;;;;;;;-6.54;100.00;102488.00;6049290;23;20023;-69
2022/12/18 06:21:01;;;;;;;2.83;2.72;;;;;;;-5.99;100.00;102578.22;6026340;23;20080;-69
2022/12/18 06:23:28;;;;;;;2.60;2.50;;;;;;;-6.19;100.00;102533.88;6041428;23;20085;-69
2022/12/18 06:25:54;;;;;;;2.50;2.40;;;;;;;-6.35;100.00;102512.75;6043011;23;20469;-69
2022/12/18 06:28:21;;;;;;;4.50;3.15;;;;;;;-6.05;100.00;102584.81;6043551;23;20015;-69
2022/12/18 06:30:48;;;;;;;1.90;1.85;;;;;;;-6.60;100.00;102474.09;6039879;23;20022;-71
2022/12/18 06:33:15;;;;;;;2.85;2.65;;;;;;;-6.31;100.00;102536.75;6037956;23;20034;-70
2022/12/18 06:35:42;;;;;;;2.15;2.05;;;;;;;-6.30;100.00;102539.34;6039242;23;20026;-70
2022/12/18 06:38:08;;;;;;;2.40;2.30;;;;;;;-6.63;100.00;102462.06;6012691;23;20030;-69
2022/12/18 06:40:37;;;;;;;2.00;1.90;;;;;;;-6.09;100.00;102548.84;6009139;23;20034;-68
2022/12/18 06:43:04;;;;;;;1.90;1.90;;;;;;;-6.16;100.00;102532.31;6041605;23;20053;-70
2022/12/18 06:45:31;;;;;;;2.78;2.67;;;;;;;-6.27;100.00;102515.66;6017534;23;20038;-69
2022/12/18 06:47:57;;;;;;;2.33;2.28;;;;;;;-6.06;100.00;102542.16;6037850;23;20027;-70
2022/12/18 06:50:24;;;;;;;2.10;2.00;;;;;;;-6.36;100.00;102471.78;6042609;23;20023;-69
2022/12/18 06:52:50;;;;;;;2.90;2.63;;;;;;;-6.52;100.00;102449.78;6020439;23;20030;-70
2022/12/18 06:55:17;;;;;;;2.85;2.60;;;;;;;-5.94;100.00;102528.16;6037416;23;20037;-70
2022/12/18 06:57:43;;;;;;;2.83;2.63;;;;;;;-5.97;100.00;102528.94;6037096;23;20110;-69
2022/12/18 07:00:10;;;;;;;2.38;2.28;;;;;;;-6.27;100.00;102500.31;6040004;23;20027;-70
2022/12/18 07:02:36;;;;;;;2.30;2.20;;;;;;;-7.21;100.00;102332.59;6034448;23;20034;-69
2022/12/18 07:05:03;;;;;;;2.22;2.13;;;;;;;-6.10;100.00;102518.97;6034367;23;20019;-69
2022/12/18 07:07:36;;;;;;;2.20;2.10;;;;;;;-5.97;100.00;102533.16;6021676;23;20023;-68
2022/12/18 07:10:03;;;;;;;2.67;2.58;;;;;;;-6.36;100.00;102477.75;6000397;23;20030;-69
2022/12/18 07:12:29;;;;;;;2.30;2.20;;;;;;;-6.59;100.00;102445.19;6039509;23;20749;-69
2022/12/18 07:14:55;;;;;;;2.33;2.22;;;;;;;-6.04;100.00;102539.69;6004675;23;20031;-69
2022/12/18 07:17:22;;;;;;;2.75;2.65;;;;;;;-6.24;100.00;102496.19;6007917;23;20022;-69
2022/12/18 07:19:49;;;;;;;2.05;1.98;;;;;;;-5.97;100.00;102545.94;6024205;23;20027;-69
2022/12/18 07:22:15;;;;;;;5.00;3.35;;;;;;;-6.64;100.00;102442.41;6016338;23;20014;-69
2022/12/18 07:24:41;;;;;;;2.10;2.00;;;;;;;-6.43;100.00;102476.63;6042243;23;20030;-69
2022/12/18 07:27:08;;;;;;;2.45;2.35;;;;;;;-5.99;100.00;102532.22;6034833;23;20111;-69
2022/12/18 07:29:35;;;;;;;2.03;1.92;;;;;;;-6.18;100.00;102498.16;6041294;23;20027;-69
2022/12/18 07:32:01;;;;;;;2.35;2.25;;;;;;;-6.00;100.00;102531.34;6034176;23;20022;-69
2022/12/18 07:34:28;;;;;;;2.20;2.10;;;;;;;-6.03;100.00;102533.78;6045152;23;20115;-69
2022/12/18 07:36:54;;;;;;;3.83;3.63;;;;;;;-5.99;100.00;102522.00;6040953;23;20073;-70
2022/12/18 07:39:21;;;;;;;2.35;2.25;;;;;;;-5.99;100.00;102532.22;6015091;23;20019;-69
2022/12/18 07:42:30;;;;;;;2.78;2.67;;;;;;;-5.96;100.00;102552.81;6048695;23;20500;-72
2022/12/18 07:44:33;;;;;;;2.50;2.38;;;;;;;-6.16;100.00;102471.00;6044278;23;20026;-72
2022/12/18 07:47:00;;;;;;;2.42;2.30;;;;;;;-5.81;100.00;102521.13;6038627;23;20032;-72
2022/12/18 07:49:27;;;;;;;2.38;2.28;;;;;;;-6.29;100.00;102438.06;6045172;23;20026;-70
2022/12/18 07:51:55;;;;;;;4.90;4.70;;;;;;;-5.78;100.00;102525.47;6031171;23;20078;-70
2022/12/18 07:54:23;;;;;;;2.97;2.78;;;;;;;-6.30;100.00;102441.41;6013560;23;20026;-70
2022/12/18 07:56:50;;;;;;;2.83;2.72;;;;;;;-6.15;100.00;102447.22;6040568;23;20033;-71
2022/12/18 07:59:17;;;;;;;2.20;2.10;;;;;;;-6.02;100.00;102434.16;6040517;23;20019;-69
2022/12/18 08:01:44;;;;;;;2.92;2.72;;;;;;;-5.83;100.00;102445.16;6037510;23;20039;-70
2022/12/18 08:04:12;;;;;;;1.80;1.80;;;;;;;-5.50;100.00;102472.97;6041186;23;20097;-70
2022/12/18 08:06:38;;;;;;;3.83;3.25;;;;;;;-5.62;100.00;102435.81;6037833;23;20014;-70
2022/12/18 08:09:11;;;;;;;3.75;3.55;;;;;;;-7.33;100.00;102140.75;6036834;23;20775;-70
2022/12/18 08:11:38;;;;;;;2.50;2.40;;;;;;;-5.21;100.00;102482.75;6004388;23;20025;-71
2022/12/18 08:14:04;;;;;;;3.03;2.85;;;;;;;-5.19;100.00;102493.06;6035650;23;20025;-70
2022/12/18 08:16:30;;;;;;;2.30;2.20;;;;;;;-5.63;100.00;102411.06;6041415;23;20548;-70
2022/12/18 08:18:57;;;;;;;17.45;16.60;;;;;;;-5.10;100.00;102484.88;5928542;23;20024;-71
2022/12/18 08:21:26;;;;;;;3.15;2.97;;;;;;;-5.18;100.00;102450.41;6040933;23;20030;-71
2022/12/18 08:23:55;;;;;;;2.47;2.38;;;;;;;-5.70;100.00;102352.81;6039561;23;20029;-71
2022/12/18 08:26:22;;;;;;;1.95;1.90;;;;;;;-5.31;100.00;102401.28;6033188;23;20026;-71
2022/12/18 08:28:50;;;;;;;2.08;1.98;;;;;;;-5.60;100.00;102361.72;6037196;23;20037;-71
2022/12/18 08:31:17;;;;;;;5.28;2.72;;;;;;;-4.90;100.00;102465.19;6026824;23;20027;-72
2022/12/18 08:33:44;;;;;;;4.60;3.05;;;;;;;-5.25;100.00;102409.22;6009715;23;20447;-72
2022/12/18 08:36:12;;;;;;;2.40;2.30;;;;;;;-5.14;100.00;102408.78;6025868;23;20073;-72
2022/12/18 08:38:38;;;;;;;1.77;1.77;;;;;;;-5.45;100.00;102348.69;6010552;23;20035;-72
2022/12/18 08:41:07;;;;;;;2.50;2.40;;;;;;;-4.76;100.00;102456.34;6001394;23;20035;-73
2022/12/18 08:46:19;;;;;;;2.90;2.80;;;;;;;-4.61;100.00;102471.44;6042081;23;20022;-72
2022/12/18 08:48:46;;;;;;;2.25;2.15;;;;;;;-5.08;100.00;102352.69;6043774;23;20033;-72
2022/12/18 08:51:15;;;;;;;2.17;2.08;;;;;;;-4.53;100.00;102428.19;6010164;23;20003;-72
2022/12/18 08:53:42;;;;;;;2.28;2.17;;;;;;;-4.32;100.00;102434.13;6020574;23;20019;-72
2022/12/18 08:56:09;;;;;;;2.50;2.40;;;;;;;-5.82;100.00;102166.53;6043846;23;20600;-72
2022/12/18 08:58:35;;;;;;;2.20;2.10;;;;;;;-4.78;100.00;102332.50;6007827;23;20528;-72
2022/12/18 09:01:08;;;;;;;6.63;5.68;;;;;;;-4.05;100.00;102438.50;6022659;23;20069;-72
2022/12/18 09:03:36;;;;;;;3.35;3.10;;;;;;;-4.12;100.00;102410.91;6036406;23;20042;-72
2022/12/18 09:06:03;;;;;;;3.17;2.75;;;;;;;-4.65;100.00;102331.25;6021758;23;20038;-72
2022/12/18 09:08:30;;;;;;;2.47;2.33;;;;;;;-4.11;100.00;102395.59;6042086;23;20497;-74
2022/12/18 09:10:56;;;;;;;2.50;2.40;;;;;;;-4.96;100.00;102248.19;6034948;23;20034;-71
2022/12/18 09:13:23;;;;;;;2.30;2.20;;;;;;;-4.56;100.00;102313.66;6035486;23;20152;-72
2022/12/18 09:15:52;;;;;;;9.98;3.35;;;;;;;-4.11;100.00;102385.31;6043121;23;20528;-72
2022/12/18 09:18:20;;;;;;;3.17;2.95;;;;;;;-3.95;100.00;102406.34;6036134;23;20086;-70
2022/12/18 09:20:46;;;;;;;2.38;2.28;;;;;;;-3.95;100.00;102393.53;6037275;23;20022;-72
2022/12/18 09:23:13;;;;;;;3.30;3.03;;;;;;;-3.70;100.00;102415.78;6037223;23;20533;-72
2022/12/18 09:25:40;;;;;;;4.05;3.75;;;;;;;-3.62;100.00;102422.06;6013564;23;20034;-71
2022/12/18 09:28:12;;;;;;;2.20;2.10;;;;;;;-4.26;100.00;102295.06;6036626;23;20027;-72
2022/12/18 09:30:40;;;;;;;2.70;2.60;;;;;;;-4.21;100.00;102275.56;6040976;23;20038;-72
2022/12/18 09:33:06;;;;;;;10.32;3.95;;;;;;;-3.51;100.00;102373.66;6030829;23;20031;-69
2022/12/18 09:35:39;;;;;;;3.13;2.95;;;;;;;-3.70;99.80;102306.34;6034725;23;20026;-71
2022/12/18 09:38:06;;;;;;;2.72;2.63;;;;;;;-3.75;98.77;102274.53;6034671;23;20456;-71
2022/12/18 09:40:45;;;;;;;2.60;2.50;;;;;;;-3.16;98.68;102361.94;6037317;23;20027;-71
2022/12/18 09:43:27;;;;;;;3.08;2.90;;;;;;;-3.49;97.91;102295.91;6010594;23;20030;-71
2022/12/18 09:46:05;;;;;;;5.45;2.90;;;;;;;-3.02;98.11;102354.66;6037737;23;20029;-72
2022/12/18 09:48:36;;;;;;;2.95;2.75;;;;;;;-2.98;96.27;102351.38;6037961;23;20030;-71
2022/12/18 09:51:21;;;;;;;3.25;2.97;;;;;;;-2.85;95.64;102340.59;6040742;23;20014;-71
2022/12/18 09:53:55;;;;;;;4.32;4.03;;;;;;;-3.35;95.64;102241.53;6030509;23;20034;-70
2022/12/18 09:56:22;;;;;;;5.32;4.88;;;;;;;-2.73;95.38;102337.53;6043428;23;20024;-71
2022/12/18 09:58:53;;;;;;;3.13;2.92;;;;;;;-3.07;93.87;102285.16;6031986;23;20023;-71
2022/12/18 10:01:22;;;;;;;3.08;2.90;;;;;;;-3.06;93.73;102271.50;6041929;23;20332;-70
2022/12/18 10:03:52;;;;;;;10.35;3.13;;;;;;;-3.13;93.76;102250.75;6014030;23;20031;-69
2022/12/18 10:06:20;;;;;;;5.78;4.35;;;;;;;-2.77;92.75;102298.88;6034392;23;20022;-69
2022/12/18 10:09:20;;;;;;;3.00;2.90;;;;;;;-2.93;91.86;102262.44;6040383;23;20031;-70
2022/12/18 10:12:07;;;;;;;2.35;2.25;;;;;;;-2.47;92.48;102312.56;6027007;23;20041;-70
2022/12/18 10:15:06;;;;;;;3.00;2.90;;;;;;;-3.42;91.07;102151.53;6040536;23;20038;-71
2022/12/18 10:17:42;;;;;;;2.65;2.55;;;;;;;-2.38;90.20;102287.97;6010116;23;20093;-71
2022/12/18 10:20:30;;;;;;;2.80;2.70;;;;;;;-2.38;89.92;102283.69;6006669;23;20435;-71
2022/12/18 10:23:13;;;;;;;3.25;3.10;;;;;;;-2.56;89.32;102248.06;6042691;23;20089;-71
2022/12/18 10:25:48;;;;;;;;;;;;;;;-2.27;89.64;102281.38;6037736;23;20509;-71
2022/12/18 10:28:17;;;;;;;2.30;2.20;;;;;;;-2.30;88.28;102265.88;6039892;23;20601;-71
2022/12/18 10:30:44;;;;;;;3.28;3.13;;;;;;;-2.80;88.05;102173.75;6039458;23;20096;-71
2022/12/18 10:33:14;;;;;;;4.00;3.60;;;;;;;-2.34;86.52;102222.94;6037213;23;20035;-71
2022/12/18 10:35:42;;;;;;;6.22;3.33;;;;;;;-2.09;86.52;102250.13;6008516;23;20514;-72
2022/12/18 10:38:11;;;;;;;2.97;2.75;;;;;;;-2.06;87.21;102242.50;6035151;23;20031;-72
2022/12/18 10:40:54;;;;;;;6.43;3.05;;;;;;;-1.97;86.52;102231.56;6032657;23;20015;-72
2022/12/18 10:43:29;;;;;;;3.53;3.38;;;;;;;-2.44;86.28;102154.97;6031959;23;20014;-70
2022/12/18 10:46:02;;;;;;;8.82;4.57;;;;;;;-2.04;86.65;102226.25;6032279;23;20034;-72
2022/12/18 10:48:31;;;;;;;3.22;2.95;;;;;;;-2.30;86.31;102161.31;6009795;23;20056;-70
2022/12/18 10:50:57;;;;;;;3.97;3.22;;;;;;;-3.13;85.82;102022.22;6013600;23;20077;-72
2022/12/18 10:53:42;;;;;;;3.10;2.80;;;;;;;-2.19;85.14;102171.00;6035260;23;20026;-69
2022/12/18 10:56:09;;;;;;;2.75;2.65;;;;;;;-2.56;84.86;102088.72;6032116;23;20007;-70
2022/12/18 10:58:37;;;;;;;3.33;3.20;;;;;;;-2.21;85.28;102130.66;6037987;23;20105;-70
2022/12/18 11:01:08;;;;;;;3.55;3.22;;;;;;;-1.84;84.98;102184.69;6016340;23;20640;-72
2022/12/18 11:03:41;;;;;;;2.75;2.63;;;;;;;-2.41;85.07;102075.34;6015272;23;20375;-73
2022/12/18 11:06:11;;;;;;;2.85;2.75;;;;;;;-1.85;84.82;102168.38;6020006;23;20044;-70
2022/12/18 11:08:38;;;;;;;2.88;2.70;;;;;;;-1.78;85.24;102169.41;6010811;23;20026;-70
2022/12/18 11:11:18;;;;;;;3.13;3.00;;;;;;;-2.12;84.18;102127.47;6022059;23;20023;-70
2022/12/18 11:14:03;;;;;;;3.20;3.05;;;;;;;-2.03;85.41;102132.81;6022021;23;20052;-70
2022/12/18 11:16:34;;;;;;;4.50;4.10;;;;;;;-2.21;84.45;102096.38;5996152;23;20027;-70
2022/12/18 11:19:22;;;;;;;3.08;2.88;;;;;;;-1.93;84.38;102145.88;6038492;23;20096;-70
2022/12/18 11:21:48;;;;;;;3.80;3.33;;;;;;;-1.58;84.46;102166.38;6040839;23;20054;-71
2022/12/18 11:24:29;;;;;;;3.15;3.05;;;;;;;-1.63;83.21;102154.28;6038511;23;20070;-72
2022/12/18 11:27:00;;;;;;;3.38;3.17;;;;;;;-1.61;84.01;102142.31;6024040;23;20083;-70
2022/12/18 11:29:38;;;;;;;3.38;3.17;;;;;;;-1.92;83.69;102073.03;6021349;23;20019;-73
2022/12/18 11:32:14;;;;;;;2.50;2.40;;;;;;;-1.52;82.97;102143.38;6035179;23;20030;-71
2022/12/18 11:34:55;;;;;;;4.15;3.17;;;;;;;-1.45;83.36;102133.19;6039595;23;20087;-73
2022/12/18 11:37:25;;;;;;;3.95;3.65;;;;;;;-1.69;83.33;102101.81;6036183;23;20029;-72